Chang Dao, China
Current Conditions -  °F | °C
As of 4:00 PM on Friday 24 Oct 2014 (Local Time) from ZYTL Reporting Station
Haze Haze  
Wind Chill: 70°   Ceiling: Unl
Heat Index: 70°   Visibility: 1.8mi
Dew Point: 54°   Wind: 4mph
Humidity: 56%   Direction: 160°SSE
Pressure: 29.88"   Gusts: NA
Location:  37.93°N, 120.72°E
Report Text: ZYTL 240800Z 16002MPS 3000 HZ NSC 21/12 Q1012 NOSIG
Loading
Personal Weather Stations






























Interactive Weather Map
Tropical Storm Tracking
New forecast layout! Learn more

10-Day Weather Forecast

Advertisements
Track Severe Weather on mobile